Time;durP1;ratioP1;P1;durP2;ratioP2;P2;SDS_P1;SDS_P2;PMS_P1;PMS_P2;Temp;Humidity;BMP_temperature;BMP_pressure;BME280_temperature;BME280_humidity;BME280_pressure;Samples;Min_cycle;Max_cycle;Signal;HPM_P1;HPM_P2
2022/03/07 00:00:50;;;;;;;11.23;10.00;;;;;19.50;101516.00;;;;2060698;28;20238;-61
2022/03/07 00:01:50;;;;;;;12.60;11.30;;;;;19.40;101522.00;;;;2051942;28;20239;-61
2022/03/07 00:02:51;;;;;;;11.60;10.27;;;;;19.40;101527.00;;;;2052350;28;20230;-61
2022/03/07 00:03:54;;;;;;;12.30;10.87;;;;;19.40;101529.00;;;;2061473;28;20231;-61
2022/03/07 00:04:54;;;;;;;11.45;10.25;;;;;19.40;101525.00;;;;2060855;28;20266;-61
2022/03/07 00:05:55;;;;;;;11.97;10.20;;;;;19.40;101537.00;;;;2060764;28;20762;-61
2022/03/07 00:06:55;;;;;;;11.67;10.50;;;;;19.40;101535.00;;;;2060717;28;20215;-61
2022/03/07 00:07:55;;;;;;;10.73;9.70;;;;;19.40;101540.00;;;;2060886;28;20219;-61
2022/03/07 00:08:55;;;;;;;12.63;11.30;;;;;19.40;101529.00;;;;2062038;28;20214;-61
2022/03/07 00:09:56;;;;;;;13.00;11.10;;;;;19.40;101534.00;;;;2059500;28;20307;-61
2022/03/07 00:10:56;;;;;;;12.60;11.30;;;;;19.40;101533.00;;;;2059517;28;20215;-61
2022/03/07 00:11:57;;;;;;;13.03;11.70;;;;;19.30;101533.00;;;;2068920;28;20222;-62
2022/03/07 00:12:57;;;;;;;12.10;10.10;;;;;19.40;101536.00;;;;2067897;28;20222;-61
2022/03/07 00:13:57;;;;;;;11.30;10.20;;;;;19.40;101528.00;;;;2059250;28;20226;-62
2022/03/07 00:14:58;;;;;;;11.83;10.63;;;;;19.40;101536.00;;;;2059456;28;20242;-61
2022/03/07 00:15:58;;;;;;;11.57;10.13;;;;;19.40;101543.00;;;;2059750;28;20223;-62
2022/03/07 00:16:58;;;;;;;16.80;10.40;;;;;19.40;101542.00;;;;2059250;28;20853;-63
2022/03/07 00:17:58;;;;;;;11.30;10.17;;;;;19.40;101540.00;;;;2060941;28;20219;-63
2022/03/07 00:18:59;;;;;;;12.13;10.50;;;;;19.40;101546.00;;;;2060809;28;20336;-63
2022/03/07 00:19:59;;;;;;;15.23;10.70;;;;;19.40;101545.00;;;;2060849;28;20211;-62
2022/03/07 00:21:00;;;;;;;11.50;10.30;;;;;19.40;101543.00;;;;2060871;28;20690;-63
2022/03/07 00:22:00;;;;;;;12.03;9.90;;;;;19.40;101547.00;;;;2060215;28;20335;-63
2022/03/07 00:23:00;;;;;;;12.13;10.07;;;;;19.40;101547.00;;;;2059551;28;20210;-63
2022/03/07 00:24:00;;;;;;;11.30;10.10;;;;;19.40;101547.00;;;;2059968;28;20273;-63
2022/03/07 00:25:01;;;;;;;12.90;10.97;;;;;19.40;101554.00;;;;2060087;28;20219;-63
2022/03/07 00:26:01;;;;;;;11.53;10.20;;;;;19.40;101550.00;;;;2060152;28;20273;-62
2022/03/07 00:27:04;;;;;;;10.77;9.43;;;;;19.40;101548.00;;;;2060311;28;20219;-63
2022/03/07 00:28:05;;;;;;;11.45;9.65;;;;;19.40;101552.00;;;;2060570;28;20269;-63
2022/03/07 00:29:05;;;;;;;11.93;10.20;;;;;19.40;101553.00;;;;2059960;28;20265;-62
2022/03/07 00:30:06;;;;;;;12.50;9.57;;;;;19.40;101550.00;;;;2059929;28;20446;-62
2022/03/07 00:31:06;;;;;;;11.63;10.13;;;;;19.40;101544.00;;;;2059591;28;20238;-62
2022/03/07 00:32:07;;;;;;;11.27;9.90;;;;;19.40;101551.00;;;;2059516;28;20694;-62
2022/03/07 00:33:07;;;;;;;14.07;10.27;;;;;19.30;101541.00;;;;2062533;28;20214;-62
2022/03/07 00:34:07;;;;;;;14.60;10.67;;;;;19.30;101544.00;;;;2059203;28;20293;-63
2022/03/07 00:35:08;;;;;;;11.13;9.23;;;;;19.30;101546.00;;;;2058714;28;20223;-62
2022/03/07 00:36:08;;;;;;;12.27;9.60;;;;;19.40;101546.00;;;;2059009;28;20230;-62
2022/03/07 00:37:09;;;;;;;12.50;10.30;;;;;19.30;101553.00;;;;2059041;28;20212;-63
2022/03/07 00:38:09;;;;;;;12.43;10.70;;;;;19.30;101548.00;;;;2059803;28;20211;-63
2022/03/07 00:39:09;;;;;;;12.27;9.87;;;;;19.30;101542.00;;;;2060307;28;20219;-63
2022/03/07 00:40:10;;;;;;;12.03;8.90;;;;;19.30;101543.00;;;;2060288;28;20215;-62
2022/03/07 00:41:11;;;;;;;10.97;9.50;;;;;19.30;101535.00;;;;2059898;28;20215;-62
2022/03/07 00:42:11;;;;;;;12.57;9.70;;;;;19.30;101548.00;;;;2059958;28;20277;-63
2022/03/07 00:43:12;;;;;;;11.03;9.20;;;;;19.30;101549.00;;;;2059635;28;20227;-62
2022/03/07 00:44:12;;;;;;;10.00;9.10;;;;;19.30;101558.00;;;;2059126;28;20277;-62
2022/03/07 00:45:12;;;;;;;11.00;9.83;;;;;19.30;101513.00;;;;2059620;28;20223;-62
2022/03/07 00:46:13;;;;;;;10.90;9.60;;;;;19.30;101557.00;;;;2058928;28;20243;-62
2022/03/07 00:47:13;;;;;;;10.10;9.10;;;;;19.30;101546.00;;;;2059012;28;20559;-63
2022/03/07 00:48:14;;;;;;;9.37;8.37;;;;;19.30;101552.00;;;;2062613;28;20614;-64
2022/03/07 00:49:14;;;;;;;10.52;9.38;;;;;19.30;101558.00;;;;2061262;28;20211;-63
2022/03/07 00:50:15;;;;;;;11.13;9.93;;;;;19.30;101553.00;;;;2060002;28;20220;-64
2022/03/07 00:51:15;;;;;;;9.57;8.70;;;;;19.30;101547.00;;;;2059625;28;20219;-63
2022/03/07 00:52:16;;;;;;;10.73;8.97;;;;;19.30;101560.00;;;;2061967;28;20215;-64
2022/03/07 00:53:18;;;;;;;10.20;9.20;;;;;19.30;101558.00;;;;2059062;28;20219;-64
2022/03/07 00:54:18;;;;;;;10.32;9.32;;;;;19.30;101559.00;;;;2059130;28;20496;-64
2022/03/07 00:55:18;;;;;;;10.03;9.03;;;;;19.20;101555.00;;;;2060098;28;20238;-64
2022/03/07 00:56:19;;;;;;;9.93;8.93;;;;;19.20;101546.00;;;;2062541;28;20210;-64
2022/03/07 00:57:19;;;;;;;9.80;8.90;;;;;19.20;101552.00;;;;2059253;28;20250;-64
2022/03/07 00:58:20;;;;;;;10.43;8.77;;;;;19.20;101552.00;;;;2053889;28;20215;-64
2022/03/07 00:59:23;;;;;;;10.20;8.60;;;;;19.20;101547.00;;;;2060133;28;20219;-64
2022/03/07 01:00:23;;;;;;;10.05;8.93;;;;;19.20;101547.00;;;;2059793;28;20862;-64
2022/03/07 01:01:24;;;;;;;10.93;9.63;;;;;19.20;101547.00;;;;2059871;28;20239;-64
2022/03/07 01:02:25;;;;;;;9.90;8.93;;;;;19.30;101549.00;;;;2060419;28;20207;-63
2022/03/07 01:03:25;;;;;;;10.13;9.13;;;;;19.20;101551.00;;;;2059847;28;20207;-64
2022/03/07 01:04:25;;;;;;;9.53;8.63;;;;;19.20;101539.00;;;;2060537;28;20211;-64
2022/03/07 01:05:26;;;;;;;9.70;8.23;;;;;19.20;101539.00;;;;2060262;28;20267;-64
2022/03/07 01:06:26;;;;;;;9.80;8.90;;;;;19.20;101547.00;;;;2060543;28;20212;-64
2022/03/07 01:07:27;;;;;;;9.20;8.07;;;;;19.20;101540.00;;;;2059977;28;20285;-64
2022/03/07 01:08:27;;;;;;;9.27;8.48;;;;;19.20;101541.00;;;;2060902;28;20234;-64
2022/03/07 01:09:28;;;;;;;9.70;8.77;;;;;19.20;101540.00;;;;2059469;28;20250;-64
2022/03/07 01:10:28;;;;;;;9.10;8.20;;;;;19.20;101535.00;;;;2059481;28;20230;-63
2022/03/07 01:11:29;;;;;;;8.80;7.90;;;;;19.20;101541.00;;;;2059403;28;20226;-64
2022/03/07 01:12:29;;;;;;;9.00;8.07;;;;;19.20;101543.00;;;;2060493;28;20204;-64
2022/03/07 01:13:29;;;;;;;9.60;8.70;;;;;19.20;101545.00;;;;2059208;28;20246;-64
2022/03/07 01:14:30;;;;;;;10.50;9.50;;;;;19.20;101543.00;;;;2059718;28;20220;-64
2022/03/07 01:15:30;;;;;;;9.30;8.40;;;;;19.20;101538.00;;;;2058728;28;20208;-64
2022/03/07 01:16:30;;;;;;;9.70;8.70;;;;;19.20;101541.00;;;;2059657;28;20322;-64
2022/03/07 01:17:31;;;;;;;9.23;8.43;;;;;19.20;101546.00;;;;2059803;28;20216;-63
2022/03/07 01:18:31;;;;;;;8.90;8.10;;;;;19.20;101541.00;;;;2059228;28;22430;-64
2022/03/07 01:19:31;;;;;;;8.83;8.10;;;;;19.10;101535.00;;;;2060543;28;20264;-63
2022/03/07 01:20:32;;;;;;;9.10;8.20;;;;;19.20;101541.00;;;;2059522;28;20234;-63
2022/03/07 01:21:32;;;;;;;9.80;8.80;;;;;19.10;101544.00;;;;2061061;28;20218;-63
2022/03/07 01:22:33;;;;;;;9.30;8.40;;;;;19.20;101533.00;;;;2059493;28;20218;-64
2022/03/07 01:23:33;;;;;;;9.13;8.33;;;;;19.10;101541.00;;;;2043729;28;20212;-64
2022/03/07 01:24:36;;;;;;;9.23;8.30;;;;;19.10;101536.00;;;;2051155;28;20207;-63
2022/03/07 01:25:36;;;;;;;8.68;7.88;;;;;19.10;101540.00;;;;2059337;28;20214;-64
2022/03/07 01:26:37;;;;;;;8.90;8.10;;;;;19.10;101536.00;;;;2059311;28;20577;-64
2022/03/07 01:27:37;;;;;;;9.23;8.33;;;;;19.10;101527.00;;;;2059206;28;20587;-64
2022/03/07 01:28:37;;;;;;;9.90;8.93;;;;;19.10;101536.00;;;;2060230;28;20215;-64
2022/03/07 01:29:38;;;;;;;8.97;8.20;;;;;19.00;101536.00;;;;2060352;28;20216;-64
2022/03/07 01:30:38;;;;;;;9.70;8.70;;;;;19.10;101540.00;;;;2060369;28;20219;-64
2022/03/07 01:31:38;;;;;;;9.43;8.53;;;;;19.10;101537.00;;;;2060102;28;20238;-64
2022/03/07 01:32:39;;;;;;;8.57;7.77;;;;;19.10;101541.00;;;;2058905;28;20211;-64
2022/03/07 01:33:39;;;;;;;8.60;7.80;;;;;19.10;101534.00;;;;2058570;28;20768;-64
2022/03/07 01:34:39;;;;;;;8.93;8.23;;;;;19.10;101533.00;;;;2058719;28;20211;-63
2022/03/07 01:35:40;;;;;;;8.20;7.50;;;;;19.10;101535.00;;;;2059196;28;20219;-63
2022/03/07 01:36:40;;;;;;;8.43;7.73;;;;;19.10;101539.00;;;;2059503;28;20226;-64
2022/03/07 01:37:41;;;;;;;8.97;8.17;;;;;19.10;101539.00;;;;2059220;28;20268;-64
2022/03/07 01:38:41;;;;;;;8.40;7.70;;;;;19.10;101542.00;;;;2058205;28;20217;-64
2022/03/07 01:39:41;;;;;;;8.83;8.03;;;;;19.00;101545.00;;;;2058497;28;20219;-64
2022/03/07 01:40:43;;;;;;;8.70;7.90;;;;;19.10;101541.00;;;;2058946;28;20318;-63
2022/03/07 01:41:43;;;;;;;7.90;7.10;;;;;19.10;101539.00;;;;2059380;28;20297;-64
2022/03/07 01:42:44;;;;;;;8.30;7.60;;;;;19.10;101542.00;;;;2059457;28;20215;-64
2022/03/07 01:43:44;;;;;;;9.60;8.63;;;;;19.10;101539.00;;;;2059440;28;20215;-63
2022/03/07 01:44:44;;;;;;;8.70;7.90;;;;;19.00;101540.00;;;;2059507;28;20230;-64
2022/03/07 01:45:45;;;;;;;9.73;8.20;;;;;19.10;101544.00;;;;2056081;28;20231;-64
2022/03/07 01:46:45;;;;;;;8.90;8.10;;;;;19.10;101541.00;;;;2060169;28;20274;-64
2022/03/07 01:47:46;;;;;;;8.40;7.60;;;;;19.00;101539.00;;;;2059341;28;20258;-63
2022/03/07 01:48:46;;;;;;;8.90;8.10;;;;;19.00;101536.00;;;;2058662;28;20218;-63
2022/03/07 01:49:46;;;;;;;8.80;8.00;;;;;19.10;101530.00;;;;2059868;28;20282;-63
2022/03/07 01:50:47;;;;;;;8.87;8.00;;;;;19.00;101528.00;;;;2059103;28;20224;-63
2022/03/07 01:51:47;;;;;;;8.47;7.77;;;;;19.00;101531.00;;;;2058933;28;20302;-63
2022/03/07 01:52:50;;;;;;;8.90;8.10;;;;;19.00;101527.00;;;;2058085;28;20215;-63
2022/03/07 01:53:51;;;;;;;8.85;8.05;;;;;19.00;101530.00;;;;2039007;29;20241;-64
2022/03/07 01:54:51;;;;;;;8.17;7.47;;;;;19.00;101527.00;;;;2046852;28;20680;-64
2022/03/07 01:55:51;;;;;;;7.97;7.27;;;;;19.00;101528.00;;;;2060201;28;20705;-64
2022/03/07 01:56:52;;;;;;;8.30;7.50;;;;;19.00;101530.00;;;;2051265;28;20751;-64
2022/03/07 01:57:52;;;;;;;8.70;7.80;;;;;19.00;101535.00;;;;2058578;28;20233;-64
2022/03/07 01:58:53;;;;;;;8.23;7.47;;;;;19.00;101531.00;;;;2059297;28;20874;-64
2022/03/07 01:59:53;;;;;;;8.57;7.77;;;;;19.00;101523.00;;;;2059248;28;20215;-64
2022/03/07 02:00:53;;;;;;;8.33;7.70;;;;;19.00;101536.00;;;;2058934;28;20215;-64
2022/03/07 02:01:54;;;;;;;9.23;7.80;;;;;19.00;101526.00;;;;2059456;28;20216;-64
2022/03/07 02:02:54;;;;;;;8.17;7.37;;;;;19.00;101533.00;;;;2060241;28;20243;-64
2022/03/07 02:03:55;;;;;;;9.23;8.40;;;;;19.00;101528.00;;;;2060122;28;20215;-64
2022/03/07 02:04:55;;;;;;;8.03;7.33;;;;;19.00;101534.00;;;;2059769;28;20227;-64
2022/03/07 02:05:55;;;;;;;8.70;7.97;;;;;19.00;101541.00;;;;2058939;28;20217;-64
2022/03/07 02:06:56;;;;;;;7.93;7.23;;;;;19.00;101529.00;;;;2050413;28;20247;-64
2022/03/07 02:07:56;;;;;;;8.70;7.80;;;;;19.00;101538.00;;;;2049955;28;20214;-64
2022/03/07 02:08:56;;;;;;;8.57;7.80;;;;;19.00;101531.00;;;;2060806;28;20710;-63
2022/03/07 02:09:57;;;;;;;8.10;7.50;;;;;19.00;101534.00;;;;2059761;28;21014;-64
2022/03/07 02:10:57;;;;;;;8.43;7.63;;;;;19.00;101525.00;;;;2050578;28;20215;-63
2022/03/07 02:11:57;;;;;;;7.73;7.03;;;;;19.00;101527.00;;;;2051972;28;20220;-64
2022/03/07 02:12:58;;;;;;;8.20;7.50;;;;;18.90;101522.00;;;;2058698;28;20702;-64
2022/03/07 02:14:01;;;;;;;7.93;7.23;;;;;19.00;101530.00;;;;2059908;28;20702;-64
2022/03/07 02:15:03;;;;;;;7.95;7.25;;;;;19.00;101534.00;;;;2058254;28;20258;-64
2022/03/07 02:16:03;;;;;;;8.32;7.63;;;;;19.00;101529.00;;;;2057189;28;20837;-64
2022/03/07 02:17:03;;;;;;;8.60;7.90;;;;;19.00;101534.00;;;;2058930;28;20275;-63
2022/03/07 02:18:04;;;;;;;7.73;7.03;;;;;19.00;101533.00;;;;2057755;28;20222;-64
2022/03/07 02:19:04;;;;;;;7.77;7.17;;;;;19.00;101523.00;;;;2059844;28;20215;-63
2022/03/07 02:20:05;;;;;;;8.00;7.37;;;;;19.00;101515.00;;;;2059714;28;20207;-64
2022/03/07 02:21:10;;;;;;;8.38;7.57;;;;;19.00;101514.00;;;;2059066;28;20270;-64
2022/03/07 02:22:10;;;;;;;8.00;7.30;;;;;19.00;101514.00;;;;2058698;28;20242;-64
2022/03/07 02:23:11;;;;;;;8.30;7.50;;;;;18.90;101518.00;;;;2058385;28;20214;-64
2022/03/07 02:24:11;;;;;;;8.27;7.57;;;;;19.00;101516.00;;;;2057171;28;20250;-64
2022/03/07 02:25:11;;;;;;;7.57;6.97;;;;;18.90;101518.00;;;;2059625;28;20218;-64
2022/03/07 02:26:14;;;;;;;8.17;7.50;;;;;19.00;101522.00;;;;2059541;28;20229;-63
2022/03/07 02:27:18;;;;;;;7.57;6.88;;;;;19.00;101526.00;;;;2058778;28;20226;-64
2022/03/07 02:28:18;;;;;;;7.25;6.63;;;;;19.00;101522.00;;;;2058590;28;20306;-64
2022/03/07 02:29:19;;;;;;;8.30;7.60;;;;;18.90;101516.00;;;;2049100;28;20737;-64
2022/03/07 02:30:19;;;;;;;8.40;7.70;;;;;18.90;101523.00;;;;2059113;28;20729;-64
2022/03/07 02:31:20;;;;;;;8.00;7.30;;;;;18.90;101525.00;;;;2064148;28;20675;-64
2022/03/07 02:32:21;;;;;;;7.90;7.20;;;;;18.90;101526.00;;;;2059943;28;20746;-63
2022/03/07 02:33:21;;;;;;;7.05;6.45;;;;;18.90;101523.00;;;;2059888;28;20269;-64
2022/03/07 02:34:22;;;;;;;8.00;7.30;;;;;18.90;101520.00;;;;2058925;28;20321;-64
2022/03/07 02:35:22;;;;;;;7.90;7.20;;;;;18.90;101521.00;;;;2059072;28;20230;-64
2022/03/07 02:36:22;;;;;;;8.10;7.50;;;;;18.90;101507.00;;;;2059036;28;20224;-63
2022/03/07 02:37:23;;;;;;;7.40;6.80;;;;;18.90;101520.00;;;;2059250;28;20223;-63
2022/03/07 02:38:23;;;;;;;7.27;6.57;;;;;18.90;101516.00;;;;2059602;28;20713;-63
2022/03/07 02:39:24;;;;;;;8.43;7.67;;;;;18.90;101518.00;;;;2059727;28;20221;-64
2022/03/07 02:40:24;;;;;;;7.40;6.80;;;;;18.90;101515.00;;;;2059924;28;20239;-64
2022/03/07 02:41:24;;;;;;;8.10;7.40;;;;;18.90;101518.00;;;;2059760;28;20229;-63
2022/03/07 02:42:25;;;;;;;7.70;7.00;;;;;18.90;101519.00;;;;2059729;28;20700;-62
2022/03/07 02:43:25;;;;;;;8.20;7.50;;;;;18.90;101518.00;;;;2057951;28;20709;-63
2022/03/07 02:44:25;;;;;;;7.77;7.07;;;;;18.90;101518.00;;;;2058472;28;20698;-63
2022/03/07 02:45:26;;;;;;;7.20;6.70;;;;;18.90;101527.00;;;;2055795;28;20235;-64
2022/03/07 02:46:26;;;;;;;7.33;6.73;;;;;18.90;101518.00;;;;2052482;28;20211;-63
2022/03/07 02:47:26;;;;;;;7.40;6.80;;;;;18.90;101511.00;;;;2057759;28;20441;-63
2022/03/07 02:48:27;;;;;;;7.60;6.90;;;;;18.90;101513.00;;;;2057837;28;20289;-63
2022/03/07 02:49:27;;;;;;;8.37;7.67;;;;;18.90;101518.00;;;;2058016;28;20244;-64
2022/03/07 02:50:28;;;;;;;7.63;6.93;;;;;18.90;101518.00;;;;2049921;28;20252;-64
2022/03/07 02:51:28;;;;;;;6.40;5.90;;;;;18.90;101515.00;;;;2058512;28;20242;-63
2022/03/07 02:52:28;;;;;;;8.30;7.60;;;;;18.90;101516.00;;;;2059416;28;20231;-64
2022/03/07 02:53:29;;;;;;;8.00;7.20;;;;;18.90;101512.00;;;;2059664;28;20212;-63
2022/03/07 02:54:29;;;;;;;7.43;6.80;;;;;18.90;101516.00;;;;2059808;28;20694;-63
2022/03/07 02:55:31;;;;;;;7.70;7.00;;;;;18.90;101525.00;;;;2059458;28;20693;-64
2022/03/07 02:56:31;;;;;;;7.25;6.55;;;;;18.80;101520.00;;;;2059670;28;20221;-64
2022/03/07 02:57:31;;;;;;;7.00;6.40;;;;;18.90;101512.00;;;;2059587;28;20208;-63
2022/03/07 02:58:32;;;;;;;7.23;6.63;;;;;18.90;101522.00;;;;2059410;28;20243;-64
2022/03/07 02:59:32;;;;;;;7.20;6.70;;;;;18.90;101535.00;;;;2059477;28;20211;-64
2022/03/07 03:00:32;;;;;;;7.67;7.00;;;;;18.90;101528.00;;;;2056458;28;20215;-64
2022/03/07 03:01:33;;;;;;;7.53;6.93;;;;;18.90;101522.00;;;;2059022;28;20219;-64
2022/03/07 03:02:33;;;;;;;8.00;7.30;;;;;18.90;101520.00;;;;2058353;28;20784;-64
2022/03/07 03:03:33;;;;;;;7.03;6.43;;;;;18.90;101526.00;;;;2057170;28;20233;-63
2022/03/07 03:04:34;;;;;;;7.57;6.97;;;;;18.90;101528.00;;;;2059757;28;20215;-63
2022/03/07 03:05:35;;;;;;;8.00;7.18;;;;;18.80;101526.00;;;;2059212;28;20702;-64
2022/03/07 03:06:36;;;;;;;7.63;7.03;;;;;18.80;101524.00;;;;2059456;28;20219;-64
2022/03/07 03:07:36;;;;;;;7.17;6.57;;;;;18.80;101521.00;;;;2058921;28;20701;-63
2022/03/07 03:08:36;;;;;;;7.37;6.73;;;;;18.80;101525.00;;;;2058979;28;20469;-64
2022/03/07 03:09:37;;;;;;;7.30;6.67;;;;;18.80;101513.00;;;;2059238;28;20239;-64
2022/03/07 03:10:37;;;;;;;6.70;6.20;;;;;18.80;101524.00;;;;2058651;28;20222;-64
2022/03/07 03:11:37;;;;;;;7.57;6.97;;;;;18.80;101527.00;;;;2058783;28;20646;-64
2022/03/07 03:12:38;;;;;;;7.13;6.53;;;;;18.80;101518.00;;;;2061324;28;20218;-64
2022/03/07 03:13:38;;;;;;;7.60;7.00;;;;;18.80;101517.00;;;;2058239;28;20223;-64
2022/03/07 03:14:39;;;;;;;7.07;6.50;;;;;18.80;101514.00;;;;2058496;28;20215;-64
2022/03/07 03:15:39;;;;;;;7.47;6.83;;;;;18.80;101515.00;;;;2056468;28;20230;-64
2022/03/07 03:16:40;;;;;;;7.20;6.60;;;;;18.80;101515.00;;;;2058730;28;20463;-64
2022/03/07 03:17:43;;;;;;;7.60;7.00;;;;;18.80;101523.00;;;;2058943;28;20219;-63
2022/03/07 03:18:44;;;;;;;7.43;6.72;;;;;18.80;101522.00;;;;2059354;28;20211;-63
2022/03/07 03:19:44;;;;;;;7.17;6.60;;;;;18.80;101526.00;;;;2059809;28;20285;-63
2022/03/07 03:20:45;;;;;;;7.33;6.73;;;;;18.80;101530.00;;;;2056468;28;20230;-64
2022/03/07 03:21:45;;;;;;;7.72;7.07;;;;;18.80;101527.00;;;;2057740;28;20214;-64
2022/03/07 03:22:46;;;;;;;7.80;7.10;;;;;18.80;101530.00;;;;2057844;28;20239;-63
2022/03/07 03:23:48;;;;;;;7.20;6.60;;;;;18.80;101526.00;;;;2058705;28;20266;-64
2022/03/07 03:24:48;;;;;;;7.20;6.60;;;;;18.80;101530.00;;;;2059553;28;20270;-64
2022/03/07 03:25:49;;;;;;;7.30;6.70;;;;;18.80;101529.00;;;;2055955;28;20322;-64
2022/03/07 03:26:49;;;;;;;7.53;6.83;;;;;18.80;101523.00;;;;2059025;28;20686;-64
2022/03/07 03:27:49;;;;;;;7.63;6.93;;;;;18.80;101538.00;;;;2060733;28;20211;-64
2022/03/07 03:28:50;;;;;;;7.17;6.53;;;;;18.80;101539.00;;;;2060631;28;20210;-64
2022/03/07 03:29:50;;;;;;;7.30;6.70;;;;;18.80;101532.00;;;;2059865;28;20217;-63
2022/03/07 03:30:52;;;;;;;7.13;6.47;;;;;18.80;101527.00;;;;2057576;28;20580;-64
2022/03/07 03:31:52;;;;;;;6.70;6.10;;;;;18.80;101535.00;;;;2059751;28;20220;-63
2022/03/07 03:32:52;;;;;;;6.97;6.40;;;;;18.80;101537.00;;;;2060963;28;20803;-64
2022/03/07 03:33:53;;;;;;;7.07;6.53;;;;;18.80;101545.00;;;;2061185;28;20694;-63
2022/03/07 03:34:55;;;;;;;7.20;6.60;;;;;18.80;101534.00;;;;2061311;28;20217;-64
2022/03/07 03:35:55;;;;;;;7.32;6.63;;;;;18.80;101528.00;;;;2060560;28;20226;-64
2022/03/07 03:36:55;;;;;;;8.00;7.30;;;;;18.80;101536.00;;;;2060150;28;20219;-64
2022/03/07 03:37:56;;;;;;;7.03;6.43;;;;;18.80;101534.00;;;;2059544;28;20559;-64
2022/03/07 03:38:56;;;;;;;7.67;6.97;;;;;18.80;101534.00;;;;2059979;28;20651;-63
2022/03/07 03:39:56;;;;;;;7.13;6.53;;;;;18.80;101539.00;;;;2059759;28;20663;-63
2022/03/07 03:40:57;;;;;;;7.13;6.53;;;;;18.80;101541.00;;;;2058131;28;20582;-64
2022/03/07 03:41:57;;;;;;;7.33;6.70;;;;;18.80;101535.00;;;;2060369;28;20709;-64
2022/03/07 03:42:57;;;;;;;7.40;6.80;;;;;18.80;101537.00;;;;2060644;28;20694;-64
2022/03/07 03:43:58;;;;;;;7.07;6.57;;;;;18.70;101532.00;;;;2060698;28;20268;-64
2022/03/07 03:44:58;;;;;;;7.13;6.43;;;;;18.80;101527.00;;;;2059876;28;20245;-64
2022/03/07 03:45:58;;;;;;;7.37;6.67;;;;;18.70;101533.00;;;;2055957;28;20581;-63
2022/03/07 03:46:59;;;;;;;6.63;6.13;;;;;18.70;101538.00;;;;2058844;28;20207;-64
2022/03/07 03:47:59;;;;;;;7.80;7.10;;;;;18.70;101539.00;;;;2059534;28;20335;-64
2022/03/07 03:49:00;;;;;;;7.60;6.90;;;;;18.70;101535.00;;;;2059739;28;20239;-64
2022/03/07 03:50:01;;;;;;;6.77;6.27;;;;;18.70;101544.00;;;;2060698;28;20710;-64
2022/03/07 03:51:01;;;;;;;6.97;6.40;;;;;18.70;101534.00;;;;2058063;28;20211;-64
2022/03/07 03:52:02;;;;;;;6.80;6.30;;;;;18.70;101537.00;;;;2068072;28;20512;-64
2022/03/07 03:53:03;;;;;;;6.70;6.20;;;;;18.70;101547.00;;;;2054500;28;20705;-64
2022/03/07 03:54:03;;;;;;;7.20;6.50;;;;;18.70;101543.00;;;;2066812;28;20253;-64
2022/03/07 03:55:05;;;;;;;7.53;6.80;;;;;18.70;101545.00;;;;2064158;28;20207;-64
2022/03/07 03:56:05;;;;;;;6.57;6.07;;;;;18.70;101544.00;;;;2059426;28;20226;-64
2022/03/07 03:57:05;;;;;;;7.20;6.60;;;;;18.70;101541.00;;;;2060605;28;20858;-63
2022/03/07 03:58:06;;;;;;;6.70;6.10;;;;;18.70;101541.00;;;;2060025;28;20234;-63
2022/03/07 03:59:06;;;;;;;7.20;6.60;;;;;18.70;101544.00;;;;2059853;28;20207;-63
2022/03/07 04:00:08;;;;;;;6.97;6.33;;;;;18.70;101540.00;;;;2059120;28;20912;-64
2022/03/07 04:01:08;;;;;;;7.20;6.60;;;;;18.70;101538.00;;;;2056253;28;20278;-64
2022/03/07 04:02:08;;;;;;;6.37;5.87;;;;;18.70;101542.00;;;;2050523;28;20227;-63
2022/03/07 04:03:09;;;;;;;7.07;6.00;;;;;18.70;101551.00;;;;2059608;28;20211;-64
2022/03/07 04:04:09;;;;;;;6.90;6.40;;;;;18.70;101551.00;;;;2059715;28;20222;-64
2022/03/07 04:05:14;;;;;;;6.10;5.60;;;;;18.70;101539.00;;;;2060465;28;20215;-64
2022/03/07 04:06:14;;;;;;;6.93;6.32;;;;;18.70;101541.00;;;;2057607;28;20293;-63
2022/03/07 04:07:14;;;;;;;6.70;6.10;;;;;18.70;101540.00;;;;2059323;28;20231;-64
2022/03/07 04:08:15;;;;;;;7.43;6.77;;;;;18.70;101538.00;;;;2058743;28;20223;-64
2022/03/07 04:09:18;;;;;;;7.03;6.43;;;;;18.70;101534.00;;;;2060097;28;20223;-64
2022/03/07 04:10:19;;;;;;;6.43;5.93;;;;;18.70;101543.00;;;;2053990;28;20218;-64
2022/03/07 04:11:21;;;;;;;6.83;6.23;;;;;18.70;101536.00;;;;2059524;28;20246;-64
2022/03/07 04:12:21;;;;;;;6.85;6.25;;;;;18.70;101540.00;;;;2062423;28;20629;-64
2022/03/07 04:13:21;;;;;;;7.03;6.43;;;;;18.70;101536.00;;;;2060133;28;20273;-64
2022/03/07 04:14:22;;;;;;;7.43;6.83;;;;;18.70;101550.00;;;;2061062;28;20580;-64
2022/03/07 04:15:22;;;;;;;7.30;6.70;;;;;18.70;101538.00;;;;2060592;28;20707;-63
2022/03/07 04:16:22;;;;;;;6.87;6.17;;;;;18.70;101536.00;;;;2060819;28;20218;-64
2022/03/07 04:17:22;;;;;;;6.70;6.20;;;;;18.70;101544.00;;;;2060950;28;20218;-63
2022/03/07 04:18:23;;;;;;;6.50;5.90;;;;;18.70;101541.00;;;;2059652;28;20214;-64
2022/03/07 04:19:23;;;;;;;7.23;6.67;;;;;18.70;101545.00;;;;2059882;28;20222;-63
2022/03/07 04:20:23;;;;;;;6.30;5.80;;;;;18.70;101544.00;;;;2059890;28;20227;-64
2022/03/07 04:21:26;;;;;;;6.73;6.13;;;;;18.70;101543.00;;;;2059612;28;20211;-64
2022/03/07 04:22:26;;;;;;;6.93;6.30;;;;;18.70;101551.00;;;;2058123;28;20219;-64
2022/03/07 04:23:26;;;;;;;7.20;6.60;;;;;18.70;101536.00;;;;2058979;28;21121;-64
2022/03/07 04:24:30;;;;;;;6.77;6.27;;;;;18.70;101536.00;;;;2059378;28;20744;-64
2022/03/07 04:25:30;;;;;;;6.57;6.07;;;;;18.70;101544.00;;;;2059847;28;20232;-64
2022/03/07 04:26:31;;;;;;;6.53;5.93;;;;;18.70;101545.00;;;;2060748;28;20225;-63
2022/03/07 04:27:31;;;;;;;6.40;5.90;;;;;18.60;101538.00;;;;2060621;28;20207;-64
2022/03/07 04:28:32;;;;;;;6.83;6.30;;;;;18.70;101548.00;;;;2060961;28;20586;-64
2022/03/07 04:29:33;;;;;;;6.88;6.18;;;;;18.70;101532.00;;;;2060813;28;20225;-64
2022/03/07 04:30:33;;;;;;;6.87;6.27;;;;;18.60;101544.00;;;;2059345;28;20215;-63
2022/03/07 04:31:35;;;;;;;6.20;5.70;;;;;18.60;101546.00;;;;2059146;28;20649;-64
2022/03/07 04:32:37;;;;;;;6.90;6.25;;;;;18.60;101546.00;;;;2060023;28;20714;-64
2022/03/07 04:33:37;;;;;;;7.45;6.25;;;;;18.60;101541.00;;;;2060179;28;20220;-64
2022/03/07 04:34:38;;;;;;;6.63;6.03;;;;;18.60;101540.00;;;;2060805;28;20890;-64
2022/03/07 04:35:38;;;;;;;7.10;6.50;;;;;18.60;101540.00;;;;2057891;28;20712;-64
2022/03/07 04:36:39;;;;;;;6.73;6.17;;;;;18.60;101542.00;;;;2060796;28;20613;-64
2022/03/07 04:37:42;;;;;;;6.90;6.23;;;;;18.60;101546.00;;;;2060162;28;20575;-64
2022/03/07 04:38:42;;;;;;;6.43;5.93;;;;;18.60;101547.00;;;;2059000;28;20211;-64
2022/03/07 04:39:43;;;;;;;6.60;6.00;;;;;18.60;101551.00;;;;2058964;28;20217;-64
2022/03/07 04:40:44;;;;;;;6.80;6.20;;;;;18.60;101543.00;;;;2053422;28;20221;-64
2022/03/07 04:41:44;;;;;;;6.13;5.63;;;;;18.60;101542.00;;;;2067537;28;20777;-64
2022/03/07 04:42:45;;;;;;;6.30;5.77;;;;;18.60;101548.00;;;;2064385;28;20490;-64
2022/03/07 04:43:45;;;;;;;6.13;5.60;;;;;18.60;101542.00;;;;2059627;28;20451;-64
2022/03/07 04:44:46;;;;;;;6.87;6.27;;;;;18.60;101547.00;;;;2059844;28;20219;-64
2022/03/07 04:45:47;;;;;;;6.57;6.00;;;;;18.60;101540.00;;;;2056993;28;20584;-64
2022/03/07 04:46:47;;;;;;;6.63;6.10;;;;;18.60;101547.00;;;;2048990;28;20224;-64
2022/03/07 04:47:47;;;;;;;6.33;5.83;;;;;18.60;101535.00;;;;2059493;28;20231;-64
2022/03/07 04:48:48;;;;;;;7.17;6.47;;;;;18.60;101536.00;;;;2060518;28;20595;-64
2022/03/07 04:49:48;;;;;;;6.73;6.13;;;;;18.60;101540.00;;;;2060492;28;20220;-63
2022/03/07 04:50:48;;;;;;;6.40;5.90;;;;;18.60;101529.00;;;;2057457;28;20702;-63
2022/03/07 04:51:49;;;;;;;6.20;5.70;;;;;18.60;101538.00;;;;2060681;28;20219;-63
2022/03/07 04:52:49;;;;;;;7.13;6.53;;;;;18.60;101529.00;;;;2060815;28;20750;-63
2022/03/07 04:53:49;;;;;;;6.00;5.43;;;;;18.60;101528.00;;;;2063803;28;20235;-64
2022/03/07 04:54:50;;;;;;;6.20;5.70;;;;;18.60;101531.00;;;;2059541;28;20251;-63
2022/03/07 04:55:50;;;;;;;6.40;5.90;;;;;18.60;101538.00;;;;2056613;28;20223;-63
2022/03/07 04:56:51;;;;;;;6.90;6.30;;;;;18.60;101539.00;;;;2059757;28;20254;-64
2022/03/07 04:57:52;;;;;;;6.22;5.72;;;;;18.60;101538.00;;;;2059092;28;20231;-64
2022/03/07 04:58:53;;;;;;;6.27;5.67;;;;;18.60;101543.00;;;;2060341;28;20248;-64